Birdum, Australia
Current Conditions -  °F | °C
As of 11:00 PM on Thursday 18 Dec 2014 (Local Time) from YPTN Reporting Station
Scattered Clouds Scattered Clouds  
Wind Chill: 88°   Ceiling: Unl
Heat Index: 96°   Visibility: 6mi
Dew Point: 73°   Wind: 8mph
Humidity: 62%   Direction: 320°NW
Pressure: 29.8"   Gusts: NA
Location:  15.65°S, 133.21°E
Report Text: YPTN 181400Z AUTO 32007KT 9999 // SCT084 31/23 Q1009
Loading
Personal Weather Stations






























Interactive Weather Map New forecast layout! Learn more

10-Day Weather Forecast

Advertisements
Track Severe Weather on mobile